createdAt,value
2018-03-03T00:00:34.471Z,0.7
2018-03-03T00:01:24.625Z,0.7
2018-03-03T00:02:13.807Z,0.6
2018-03-03T00:03:04.355Z,0.6
2018-03-03T00:03:54.037Z,0.6
2018-03-03T00:04:44.170Z,0.6
2018-03-03T00:05:34.531Z,0.6
2018-03-03T00:06:23.706Z,0.6
2018-03-03T00:07:14.320Z,0.6
2018-03-03T00:08:04.715Z,0.6
2018-03-03T00:08:54.460Z,0.6
2018-03-03T00:09:43.935Z,0.6
2018-03-03T00:10:34.466Z,0.6
2018-03-03T00:11:24.935Z,0.6
2018-03-03T00:12:14.672Z,0.6
2018-03-03T00:13:04.659Z,0.6
2018-03-03T00:13:54.599Z,0.6
2018-03-03T00:14:44.849Z,0.6
2018-03-03T00:15:35.217Z,0.6
2018-03-03T00:16:24.936Z,0.6
2018-03-03T00:17:15.414Z,0.6
2018-03-03T00:18:05.383Z,0.6
2018-03-03T00:18:54.662Z,0.6
2018-03-03T00:19:44.718Z,0.6
2018-03-03T00:20:35.073Z,0.6
2018-03-03T00:21:24.829Z,0.6
2018-03-03T00:22:14.987Z,0.6
2018-03-03T00:23:04.922Z,0.6
2018-03-03T00:23:55.746Z,0.6
2018-03-03T00:24:44.827Z,0.6
2018-03-03T00:25:35.764Z,0.6
2018-03-03T00:26:25.636Z,0.7
2018-03-03T00:27:15.594Z,0.7
2018-03-03T00:28:05.584Z,0.6
2018-03-03T00:28:55.348Z,0.7
2018-03-03T00:29:45.463Z,0.7
2018-03-03T00:30:35.953Z,0.6
2018-03-03T00:31:25.999Z,0.6
2018-03-03T00:32:15.738Z,0.6
2018-03-03T00:33:05.394Z,0.7
2018-03-03T00:33:56.138Z,0.7
2018-03-03T00:34:45.512Z,0.7
2018-03-03T00:35:35.970Z,0.8
2018-03-03T00:36:26.339Z,0.7
2018-03-03T00:37:16.476Z,0.7
2018-03-03T00:38:06.338Z,0.8
2018-03-03T00:38:57.093Z,0.7
2018-03-03T00:39:45.970Z,0.7
2018-03-03T00:40:36.028Z,0.7
2018-03-03T00:41:26.470Z,0.7
2018-03-03T00:42:16.041Z,0.7
2018-03-03T00:43:06.362Z,0.7
2018-03-03T00:43:56.548Z,0.7
2018-03-03T00:44:47.478Z,0.8
2018-03-03T00:45:36.929Z,0.8
2018-03-03T00:46:26.985Z,0.8
2018-03-03T00:47:17.325Z,0.9
2018-03-03T00:48:07.959Z,0.9
2018-03-03T00:48:56.952Z,1
2018-03-03T00:49:47.116Z,1.1
2018-03-03T00:50:37.271Z,1.1
2018-03-03T00:51:26.998Z,1.1
2018-03-03T00:52:16.918Z,1.2
2018-03-03T00:53:07.234Z,1.3
2018-03-03T00:53:57.762Z,1.3
2018-03-03T00:54:47.054Z,1.3
2018-03-03T00:55:37.880Z,1.4
2018-03-03T00:56:28.039Z,1.4
2018-03-03T00:57:17.214Z,1.5
2018-03-03T00:58:08.189Z,1.6
2018-03-03T00:58:58.196Z,1.6
2018-03-03T00:59:47.482Z,1.6
2018-03-03T01:00:38.804Z,1.6
2018-03-03T01:01:28.086Z,1.6
2018-03-03T01:02:18.080Z,1.7
2018-03-03T01:03:08.112Z,1.7
2018-03-03T01:03:58.561Z,1.8
2018-03-03T01:04:48.206Z,1.8
2018-03-03T01:05:38.849Z,1.8
2018-03-03T01:06:28.615Z,1.9
2018-03-03T01:07:18.958Z,1.9
2018-03-03T01:08:08.543Z,1.9
2018-03-03T01:08:58.293Z,1.9
2018-03-03T01:09:48.951Z,1.9
2018-03-03T01:10:38.673Z,2
2018-03-03T01:11:29.259Z,2
2018-03-03T01:12:19.289Z,2
2018-03-03T01:13:08.552Z,2.1
2018-03-03T01:13:59.223Z,2.1
2018-03-03T01:14:49.280Z,2.1
2018-03-03T01:15:38.863Z,2.1
2018-03-03T01:16:28.826Z,2.1
2018-03-03T01:17:18.879Z,2.2
2018-03-03T01:18:08.730Z,2.2
2018-03-03T01:18:59.464Z,2.2
2018-03-03T01:19:49.425Z,2.2
2018-03-03T01:20:39.860Z,2.2
2018-03-03T01:21:29.348Z,2.2
2018-03-03T01:22:19.007Z,2.3
2018-03-03T01:23:08.955Z,2.3
2018-03-03T01:23:59.232Z,2.3
2018-03-03T01:24:48.410Z,2.3
2018-03-03T01:25:39.923Z,2.3
2018-03-03T01:26:29.835Z,2.3
2018-03-03T01:27:20.030Z,2.4
2018-03-03T01:28:09.612Z,2.4
2018-03-03T01:29:00.136Z,2.4
2018-03-03T01:29:50.197Z,2.4
2018-03-03T01:30:40.517Z,2.4
2018-03-03T01:31:30.588Z,2.5
2018-03-03T01:32:19.865Z,2.4
2018-03-03T01:33:10.138Z,2.5
2018-03-03T01:34:00.193Z,2.5
2018-03-03T01:34:50.562Z,2.5
2018-03-03T01:35:39.307Z,2.6
2018-03-03T01:36:30.952Z,2.6
2018-03-03T01:37:20.258Z,2.6
2018-03-03T01:38:09.470Z,2.6
2018-03-03T01:39:00.557Z,2.7
2018-03-03T01:39:50.980Z,2.7
2018-03-03T01:40:40.638Z,2.8
2018-03-03T01:41:30.709Z,2.8
2018-03-03T01:42:21.324Z,2.8
2018-03-03T01:43:10.597Z,2.9
2018-03-03T01:44:00.669Z,2.9
2018-03-03T01:44:50.814Z,2.9
2018-03-03T01:45:41.258Z,2.9
2018-03-03T01:46:31.628Z,3
2018-03-03T01:47:21.469Z,3.1
2018-03-03T01:48:11.461Z,3.1
2018-03-03T01:49:01.811Z,3.1
2018-03-03T01:49:51.256Z,3.2
2018-03-03T01:50:41.612Z,3.2
2018-03-03T01:51:31.386Z,3.3
2018-03-03T01:52:21.501Z,3.3
2018-03-03T01:53:11.580Z,3.3
2018-03-03T01:54:01.351Z,3.3
2018-03-03T01:54:51.860Z,3.4
2018-03-03T01:55:41.901Z,3.4
2018-03-03T01:56:31.863Z,3.4
2018-03-03T01:57:21.356Z,3.4
2018-03-03T01:58:12.172Z,3.4
2018-03-03T01:59:02.246Z,3.4
2018-03-03T01:59:51.736Z,3.4
2018-03-03T02:00:42.553Z,3.5
2018-03-03T02:01:32.617Z,3.5
2018-03-03T02:02:21.706Z,3.5
2018-03-03T02:03:11.663Z,3.5
2018-03-03T02:04:02.808Z,3.6
2018-03-03T02:04:52.061Z,3.6
2018-03-03T02:05:42.647Z,3.6
2018-03-03T02:06:32.443Z,3.6
2018-03-03T02:07:23.136Z,3.7
2018-03-03T02:08:12.587Z,3.7
2018-03-03T02:09:02.875Z,3.7
2018-03-03T02:09:52.593Z,3.7
2018-03-03T02:10:42.940Z,3.8
2018-03-03T02:11:32.791Z,3.8
2018-03-03T02:12:23.062Z,3.8
2018-03-03T02:13:12.336Z,3.8
2018-03-03T02:14:02.888Z,3.8
2018-03-03T02:14:53.633Z,3.8
2018-03-03T02:15:43.058Z,3.9
2018-03-03T02:16:33.046Z,3.9
2018-03-03T02:17:23.398Z,4
2018-03-03T02:18:13.186Z,4.1
2018-03-03T02:19:03.709Z,4.1
2018-03-03T02:19:53.108Z,4.1
2018-03-03T02:20:43.675Z,4.1
2018-03-03T02:21:33.977Z,4.1
2018-03-03T02:22:23.305Z,4.1
2018-03-03T02:23:13.265Z,4.1
2018-03-03T02:24:03.369Z,4.1
2018-03-03T02:24:53.622Z,4.2
2018-03-03T02:25:43.667Z,4.2
2018-03-03T02:26:33.535Z,4.2
2018-03-03T02:27:24.068Z,4.2
2018-03-03T02:28:14.412Z,4.2
2018-03-03T02:29:03.891Z,4.3
2018-03-03T02:29:53.773Z,4.3
2018-03-03T02:30:43.687Z,4.3
2018-03-03T02:31:34.374Z,4.3
2018-03-03T02:32:24.118Z,4.3
2018-03-03T02:33:14.737Z,4.3
2018-03-03T02:34:04.815Z,4.3
2018-03-03T02:34:55.157Z,4.3
2018-03-03T02:35:45.176Z,4.3
2018-03-03T02:36:35.261Z,4.3
2018-03-03T02:37:25.057Z,4.3
2018-03-03T02:38:14.834Z,4.3
2018-03-03T02:39:05.430Z,4.3
2018-03-03T02:39:55.179Z,4.3
2018-03-03T02:40:44.958Z,4.3
2018-03-03T02:41:35.610Z,4.3
2018-03-03T02:42:25.640Z,4.4
2018-03-03T02:43:15.442Z,4.4
2018-03-03T02:44:05.461Z,4.4
2018-03-03T02:44:55.810Z,4.4
2018-03-03T02:45:45.794Z,4.4
2018-03-03T02:46:35.351Z,4.4
2018-03-03T02:47:25.898Z,4.4
2018-03-03T02:48:15.788Z,4.4
2018-03-03T02:49:05.866Z,4.4
2018-03-03T02:49:55.847Z,4.4
2018-03-03T02:50:44.779Z,4.4
2018-03-03T02:51:35.715Z,4.4
2018-03-03T02:52:26.047Z,4.5
2018-03-03T02:53:14.940Z,4.5
2018-03-03T02:54:05.403Z,4.5
2018-03-03T02:54:55.344Z,4.5
2018-03-03T02:55:45.998Z,4.5
2018-03-03T02:56:35.851Z,4.6
2018-03-03T02:57:25.518Z,4.5
2018-03-03T02:58:15.936Z,4.6
2018-03-03T02:59:05.626Z,4.6
2018-03-03T02:59:55.796Z,4.6
2018-03-03T03:00:46.185Z,4.6
2018-03-03T03:01:36.195Z,4.6
2018-03-03T03:02:25.655Z,4.6
2018-03-03T03:03:16.505Z,4.5
2018-03-03T03:04:06.293Z,4.5
2018-03-03T03:04:56.728Z,4.6
2018-03-03T03:05:46.942Z,4.6
2018-03-03T03:06:36.437Z,4.6
2018-03-03T03:07:26.883Z,4.6
2018-03-03T03:08:16.654Z,4.6
2018-03-03T03:09:07.207Z,4.6
2018-03-03T03:09:55.970Z,4.6
2018-03-03T03:10:46.238Z,4.6
2018-03-03T03:11:37.070Z,4.6
2018-03-03T03:12:26.535Z,4.6
2018-03-03T03:13:16.401Z,4.6
2018-03-03T03:14:06.221Z,4.6
2018-03-03T03:14:57.209Z,4.6
2018-03-03T03:15:46.934Z,4.6
2018-03-03T03:16:36.623Z,4.6
2018-03-03T03:17:27.737Z,4.6
2018-03-03T03:18:17.802Z,4.6
2018-03-03T03:19:06.702Z,4.6
2018-03-03T03:19:57.757Z,4.6
2018-03-03T03:20:47.566Z,4.6
2018-03-03T03:21:37.436Z,4.6
2018-03-03T03:22:27.589Z,4.7
2018-03-03T03:23:18.017Z,4.7
2018-03-03T03:24:07.402Z,4.8
2018-03-03T03:24:57.658Z,4.8
2018-03-03T03:25:47.244Z,4.8
2018-03-03T03:26:38.032Z,4.8
2018-03-03T03:27:27.336Z,4.8
2018-03-03T03:28:17.912Z,4.8
2018-03-03T03:29:08.053Z,4.9
2018-03-03T03:29:58.004Z,4.9
2018-03-03T03:30:48.153Z,4.9
2018-03-03T03:31:38.149Z,4.9
2018-03-03T03:32:28.241Z,4.9
2018-03-03T03:33:18.041Z,4.9
2018-03-03T03:34:08.275Z,5
2018-03-03T03:34:58.616Z,5
2018-03-03T03:35:49.001Z,5
2018-03-03T03:36:38.155Z,5
2018-03-03T03:37:27.831Z,5
2018-03-03T03:38:18.613Z,5.1
2018-03-03T03:39:08.640Z,5.1
2018-03-03T03:39:57.888Z,5.1
2018-03-03T03:40:48.323Z,5.1
2018-03-03T03:41:39.375Z,5.1
2018-03-03T03:42:29.430Z,5.1
2018-03-03T03:43:18.381Z,5.1
2018-03-03T03:44:09.358Z,5.1
2018-03-03T03:44:59.375Z,5.1
2018-03-03T03:45:49.367Z,5.2
2018-03-03T03:46:39.420Z,5.1
2018-03-03T03:47:29.481Z,5.1
2018-03-03T03:48:20.118Z,5.2
2018-03-03T03:49:09.002Z,5.2
2018-03-03T03:49:59.613Z,5.2
2018-03-03T03:50:49.382Z,5.2
2018-03-03T03:51:38.965Z,5.3
2018-03-03T03:52:29.785Z,5.3
2018-03-03T03:53:19.097Z,5.3
2018-03-03T03:54:09.922Z,5.3
2018-03-03T03:55:00.260Z,5.3
2018-03-03T03:55:49.344Z,5.3
2018-03-03T03:56:40.328Z,5.3
2018-03-03T03:57:30.368Z,5.3
2018-03-03T03:58:20.446Z,5.3
2018-03-03T03:59:10.790Z,5.2
2018-03-03T04:00:00.275Z,5.2
2018-03-03T04:00:50.065Z,5.3
2018-03-03T04:01:40.969Z,5.3
2018-03-03T04:02:31.017Z,5.3
2018-03-03T04:03:20.928Z,5.3
2018-03-03T04:04:10.624Z,5.3
2018-03-03T04:05:00.636Z,5.3
2018-03-03T04:05:50.984Z,5.3
2018-03-03T04:06:40.478Z,5.3
2018-03-03T04:07:30.816Z,5.3
2018-03-03T04:08:20.928Z,5.3
2018-03-03T04:09:11.026Z,5.3
2018-03-03T04:10:00.490Z,5.3
2018-03-03T04:10:51.316Z,5.3
2018-03-03T04:11:41.088Z,5.4
2018-03-03T04:12:30.748Z,5.3
2018-03-03T04:13:20.804Z,5.3
2018-03-03T04:14:10.583Z,5.3
2018-03-03T04:15:01.341Z,5.4
2018-03-03T04:15:50.781Z,5.3
2018-03-03T04:16:40.847Z,5.3
2018-03-03T04:17:31.190Z,5.3
2018-03-03T04:18:21.347Z,5.3
2018-03-03T04:19:11.024Z,5.3
2018-03-03T04:20:01.069Z,5.3
2018-03-03T04:20:51.445Z,5.3
2018-03-03T04:21:41.283Z,5.3
2018-03-03T04:22:31.813Z,5.3
2018-03-03T04:23:22.157Z,5.3
2018-03-03T04:24:11.940Z,5.3
2018-03-03T04:25:01.796Z,5.3
2018-03-03T04:25:51.890Z,5.3
2018-03-03T04:26:42.198Z,5.3
2018-03-03T04:27:31.993Z,5.3
2018-03-03T04:28:21.548Z,5.4
2018-03-03T04:29:12.283Z,5.4
2018-03-03T04:30:02.334Z,5.3
2018-03-03T04:30:52.421Z,5.4
2018-03-03T04:31:42.144Z,5.3
2018-03-03T04:32:32.494Z,5.3
2018-03-03T04:33:22.561Z,5.3
2018-03-03T04:34:11.999Z,5.3
2018-03-03T04:35:02.972Z,5.3
2018-03-03T04:35:52.326Z,5.4
2018-03-03T04:36:42.411Z,5.4
2018-03-03T04:37:32.355Z,5.3
2018-03-03T04:38:22.018Z,5.3
2018-03-03T04:39:12.094Z,5.3
2018-03-03T04:40:02.715Z,5.2
2018-03-03T04:40:52.300Z,5.1
2018-03-03T04:41:42.818Z,5.1
2018-03-03T04:42:32.794Z,5.1
2018-03-03T04:43:22.806Z,5
2018-03-03T04:44:12.683Z,4.9
2018-03-03T04:45:03.618Z,4.9
2018-03-03T04:45:53.263Z,4.9
2018-03-03T04:46:43.424Z,4.9
2018-03-03T04:47:33.291Z,4.8
2018-03-03T04:48:22.800Z,4.8
2018-03-03T04:49:13.823Z,4.8
2018-03-03T04:50:03.713Z,4.8
2018-03-03T04:50:54.009Z,4.8
2018-03-03T04:51:43.803Z,4.8
2018-03-03T04:52:34.136Z,4.8
2018-03-03T04:53:24.453Z,4.8
2018-03-03T04:54:14.237Z,4.7
2018-03-03T04:55:04.267Z,4.7
2018-03-03T04:55:54.342Z,4.6
2018-03-03T04:56:43.864Z,4.6
2018-03-03T04:57:34.173Z,4.6
2018-03-03T04:58:23.741Z,4.6
2018-03-03T04:59:14.304Z,4.6
2018-03-03T05:00:03.570Z,4.6
2018-03-03T05:00:54.649Z,4.6
2018-03-03T05:01:44.550Z,4.6
2018-03-03T05:02:34.850Z,4.6
2018-03-03T05:03:23.902Z,4.6
2018-03-03T05:04:14.328Z,4.6
2018-03-03T05:05:04.499Z,4.6
2018-03-03T05:05:54.528Z,4.6
2018-03-03T05:06:44.309Z,4.6
2018-03-03T05:07:34.915Z,4.6
2018-03-03T05:08:24.889Z,4.6
2018-03-03T05:09:14.655Z,4.6
2018-03-03T05:10:04.449Z,4.6
2018-03-03T05:10:54.817Z,4.6
2018-03-03T05:11:44.644Z,4.6
2018-03-03T05:12:35.492Z,4.6
2018-03-03T05:13:25.512Z,4.6
2018-03-03T05:14:15.447Z,4.6
2018-03-03T05:15:04.891Z,4.6
2018-03-03T05:15:55.791Z,4.6
2018-03-03T05:16:44.805Z,4.6
2018-03-03T05:17:35.303Z,4.6
2018-03-03T05:18:24.407Z,4.6
2018-03-03T05:19:15.686Z,4.6
2018-03-03T05:20:05.771Z,4.6
2018-03-03T05:20:55.066Z,4.6
2018-03-03T05:21:45.607Z,4.6
2018-03-03T05:22:35.839Z,4.6
2018-03-03T05:23:26.213Z,4.6
2018-03-03T05:24:15.439Z,4.6
2018-03-03T05:25:06.333Z,4.6
2018-03-03T05:25:55.229Z,4.6
2018-03-03T05:26:45.588Z,4.5
2018-03-03T05:27:35.816Z,4.4
2018-03-03T05:28:26.838Z,4.4
2018-03-03T05:29:15.154Z,4.4
2018-03-03T05:30:06.401Z,4.4
2018-03-03T05:30:56.751Z,4.4
2018-03-03T05:31:46.845Z,4.4
2018-03-03T05:32:36.436Z,4.4
2018-03-03T05:33:26.611Z,4.4
2018-03-03T05:34:16.478Z,4.4
2018-03-03T05:35:06.805Z,4.4
2018-03-03T05:35:55.903Z,4.4
2018-03-03T05:36:46.541Z,4.4
2018-03-03T05:37:36.785Z,4.4
2018-03-03T05:38:27.002Z,4.4
2018-03-03T05:39:16.118Z,4.4
2018-03-03T05:40:06.488Z,4.4
2018-03-03T05:40:57.686Z,4.4
2018-03-03T05:41:47.486Z,4.4
2018-03-03T05:42:37.200Z,4.4
2018-03-03T05:43:26.490Z,4.4
2018-03-03T05:44:16.552Z,4.4
2018-03-03T05:45:06.709Z,4.4
2018-03-03T05:45:57.458Z,4.5
2018-03-03T05:46:47.468Z,4.5
2018-03-03T05:47:37.567Z,4.5
2018-03-03T05:48:27.884Z,4.6
2018-03-03T05:49:16.977Z,4.6
2018-03-03T05:50:07.745Z,4.6
2018-03-03T05:50:57.577Z,4.6
2018-03-03T05:51:47.551Z,4.6
2018-03-03T05:52:37.675Z,4.6
2018-03-03T05:53:27.474Z,4.6
2018-03-03T05:54:17.711Z,4.6
2018-03-03T05:55:08.042Z,4.7
2018-03-03T05:55:57.940Z,4.7
2018-03-03T05:56:47.762Z,4.7
2018-03-03T05:57:37.909Z,4.7
2018-03-03T05:58:27.978Z,4.7
2018-03-03T05:59:18.154Z,4.7
2018-03-03T06:00:08.667Z,4.7
2018-03-03T06:00:57.869Z,4.8
2018-03-03T06:01:48.348Z,4.8
2018-03-03T06:02:39.138Z,4.8
2018-03-03T06:03:28.942Z,4.8
2018-03-03T06:04:19.023Z,4.8
2018-03-03T06:05:09.014Z,4.8
2018-03-03T06:05:59.069Z,4.8
2018-03-03T06:06:49.126Z,4.8
2018-03-03T06:07:39.449Z,4.8
2018-03-03T06:08:29.243Z,4.9
2018-03-03T06:09:19.279Z,4.9
2018-03-03T06:10:09.620Z,4.9
2018-03-03T06:10:59.415Z,4.9
2018-03-03T06:11:49.480Z,4.9
2018-03-03T06:12:39.766Z,4.9
2018-03-03T06:14:09.610Z,5
2018-03-03T06:14:23.427Z,5.1
2018-03-03T06:15:13.796Z,5.1
2018-03-03T06:16:04.096Z,5.1
2018-03-03T06:16:53.882Z,5.1
2018-03-03T06:17:44.214Z,5.1
2018-03-03T06:18:33.422Z,5.2
2018-03-03T06:19:24.318Z,5.2
2018-03-03T06:20:14.411Z,5.3
2018-03-03T06:21:04.668Z,5.3
2018-03-03T06:21:53.961Z,5.3
2018-03-03T06:22:44.274Z,5.3
2018-03-03T06:23:34.587Z,5.4
2018-03-03T06:24:24.110Z,5.4
2018-03-03T06:25:14.483Z,5.4
2018-03-03T06:26:04.491Z,5.5
2018-03-03T06:26:54.557Z,5.6
2018-03-03T06:27:44.912Z,5.6
2018-03-03T06:28:34.683Z,5.7
2018-03-03T06:29:24.434Z,5.8
2018-03-03T06:30:14.769Z,5.8
2018-03-03T06:31:04.593Z,5.9
2018-03-03T06:31:54.895Z,5.9
2018-03-03T06:32:45.039Z,6
2018-03-03T06:33:35.306Z,6.1
2018-03-03T06:34:24.762Z,6.2
2018-03-03T06:35:15.106Z,6.3
2018-03-03T06:36:05.457Z,6.4
2018-03-03T06:36:55.231Z,6.4
2018-03-03T06:37:44.726Z,6.6
2018-03-03T06:38:35.336Z,6.6
2018-03-03T06:39:25.693Z,6.8
2018-03-03T06:40:15.166Z,6.9
2018-03-03T06:41:05.766Z,6.9
2018-03-03T06:41:55.578Z,7.1
2018-03-03T06:42:45.886Z,7.2
2018-03-03T06:43:35.676Z,7.3
2018-03-03T06:44:26.004Z,7.4
2018-03-03T06:45:16.048Z,7.5
2018-03-03T06:46:06.178Z,7.6
2018-03-03T06:46:55.938Z,7.8
2018-03-03T06:47:46.240Z,7.8
2018-03-03T06:48:36.287Z,7.9
2018-03-03T06:49:26.107Z,8.1
2018-03-03T06:50:16.411Z,8.1
2018-03-03T06:51:06.174Z,8.3
2018-03-03T06:51:56.304Z,8.3
2018-03-03T06:52:46.563Z,8.4
2018-03-03T06:53:36.605Z,8.6
2018-03-03T06:54:26.400Z,8.7
2018-03-03T06:55:16.741Z,8.8
2018-03-03T06:56:06.765Z,8.9
2018-03-03T06:56:56.877Z,9.1
2018-03-03T06:57:46.631Z,9.2
2018-03-03T06:58:36.964Z,9.3
2018-03-03T06:59:26.997Z,9.4
2018-03-03T07:00:16.764Z,9.6
2018-03-03T07:01:06.479Z,9.8
2018-03-03T07:01:56.512Z,10
2018-03-03T07:02:46.402Z,10.1
2018-03-03T07:03:36.491Z,10.4
2018-03-03T07:04:26.794Z,10.6
2018-03-03T07:05:16.547Z,10.9
2018-03-03T07:06:06.463Z,11.3
2018-03-03T07:06:56.661Z,11.6
2018-03-03T07:07:46.939Z,11.9
2018-03-03T07:08:36.586Z,12.4
2018-03-03T07:09:26.623Z,12.8
2018-03-03T07:10:17.461Z,13.3
2018-03-03T07:11:06.861Z,13.6
2018-03-03T07:11:57.676Z,14.1
2018-03-03T07:12:47.660Z,14.5
2018-03-03T07:13:37.215Z,14.9
2018-03-03T07:14:28.055Z,15.5
2018-03-03T07:15:17.541Z,16.2
2018-03-03T07:16:07.681Z,17.1
2018-03-03T07:16:56.668Z,18.2
2018-03-03T07:17:47.511Z,19.4
2018-03-03T07:18:37.547Z,20.3
2018-03-03T07:19:27.804Z,21.1
2018-03-03T07:20:17.618Z,21.7
2018-03-03T07:21:07.911Z,22.3
2018-03-03T07:21:57.970Z,22.8
2018-03-03T07:22:47.221Z,23.1
2018-03-03T07:23:38.099Z,23.3
2018-03-03T07:24:27.585Z,23.5
2018-03-03T07:25:18.106Z,24.1
2018-03-03T07:26:07.670Z,24.7
2018-03-03T07:26:58.108Z,25.1
2018-03-03T07:27:48.807Z,25.4
2018-03-03T07:28:38.151Z,25.7
2018-03-03T07:29:27.730Z,25.8
2018-03-03T07:30:18.935Z,25.9
2018-03-03T07:31:08.398Z,26.1
2018-03-03T07:31:58.056Z,26.8
2018-03-03T07:32:48.635Z,27.6
2018-03-03T07:33:38.473Z,28.3
2018-03-03T07:34:28.538Z,28.8
2018-03-03T07:35:19.161Z,29.3
2018-03-03T07:36:08.338Z,29.8
2018-03-03T07:36:58.580Z,30.1
2018-03-03T07:37:48.147Z,30.4
2018-03-03T07:38:38.407Z,30.7
2018-03-03T07:39:29.195Z,31.1
2018-03-03T07:40:19.483Z,31.4
2018-03-03T07:41:08.891Z,31.6
2018-03-03T07:41:58.965Z,32.1
2018-03-03T07:42:49.427Z,33.3
2018-03-03T07:43:38.962Z,35.1
2018-03-03T07:44:29.493Z,36.6
2018-03-03T07:45:19.537Z,37.6
2018-03-03T07:46:08.709Z,38.3
2018-03-03T07:46:58.890Z,38.6
2018-03-03T07:47:49.543Z,38.8
2018-03-03T07:48:39.757Z,38.9
2018-03-03T07:49:30.407Z,39.1
2018-03-03T07:50:19.690Z,39.1
2018-03-03T07:51:09.932Z,39.3
2018-03-03T07:52:00.097Z,39.3
2018-03-03T07:52:49.559Z,39.3
2018-03-03T07:53:39.709Z,39.2
2018-03-03T07:54:30.009Z,39.1
2018-03-03T07:55:20.208Z,38.9
2018-03-03T07:56:10.675Z,38.8
2018-03-03T07:57:00.418Z,38.6
2018-03-03T07:57:50.098Z,38.6
2018-03-03T07:58:40.445Z,38.5
2018-03-03T07:59:30.392Z,38.6
2018-03-03T08:00:20.060Z,38.8
2018-03-03T08:01:10.642Z,39.6
2018-03-03T08:02:00.671Z,40.8
2018-03-03T08:02:50.816Z,42.2
2018-03-03T08:03:41.088Z,43.7
2018-03-03T08:04:30.553Z,45.4
2018-03-03T08:05:21.491Z,47
2018-03-03T08:06:10.953Z,48.5
2018-03-03T08:07:00.686Z,49.9
2018-03-03T08:07:51.378Z,51.3
2018-03-03T08:08:41.428Z,52.9
2018-03-03T08:09:30.953Z,53.8
2018-03-03T08:10:21.184Z,51.6
2018-03-03T08:11:11.567Z,48.9
2018-03-03T08:12:01.611Z,47
2018-03-03T08:12:51.720Z,43.7
2018-03-03T08:13:41.727Z,39.3
2018-03-03T08:14:31.506Z,36.9
2018-03-03T08:15:21.067Z,35.6
2018-03-03T08:16:12.200Z,35
2018-03-03T08:17:01.692Z,34.5
2018-03-03T08:17:51.174Z,34.4
2018-03-03T08:18:41.192Z,34.4
2018-03-03T08:19:31.861Z,34.4
2018-03-03T08:20:21.678Z,34.6
2018-03-03T08:21:11.474Z,34.8
2018-03-03T08:22:01.895Z,35.3
2018-03-03T08:22:51.181Z,35.9
2018-03-03T08:23:42.427Z,36.6
2018-03-03T08:24:31.693Z,37.3
2018-03-03T08:25:22.574Z,37.8
2018-03-03T08:26:12.879Z,38.2
2018-03-03T08:27:01.994Z,38.6
2018-03-03T08:27:52.303Z,39.3
2018-03-03T08:28:42.263Z,40.6
2018-03-03T08:29:32.614Z,41.7
2018-03-03T08:30:22.364Z,42.4
2018-03-03T08:31:12.627Z,42.9
2018-03-03T08:32:03.012Z,43.1
2018-03-03T08:32:52.170Z,43.4
2018-03-03T08:33:42.216Z,43.7
2018-03-03T08:34:33.161Z,44
2018-03-03T08:35:21.720Z,44.4
2018-03-03T08:36:13.044Z,44.6
2018-03-03T08:37:02.931Z,44.9
2018-03-03T08:37:52.876Z,45.2
2018-03-03T08:38:43.131Z,45.7
2018-03-03T08:39:33.274Z,46.9
2018-03-03T08:40:23.141Z,47.1
2018-03-03T08:41:13.836Z,45.7
2018-03-03T08:42:03.886Z,45.1
2018-03-03T08:42:53.968Z,43.5
2018-03-03T08:43:44.021Z,41.6
2018-03-03T08:44:33.501Z,40.4
2018-03-03T08:45:23.841Z,39.8
2018-03-03T08:46:13.887Z,39.6
2018-03-03T08:47:03.963Z,39.9
2018-03-03T08:47:54.325Z,41.3
2018-03-03T08:48:44.068Z,43.2
2018-03-03T08:49:33.588Z,45.6
2018-03-03T08:50:23.416Z,48.1
2018-03-03T08:51:14.098Z,52.2
2018-03-03T08:52:03.072Z,54.8
2018-03-03T08:52:53.885Z,52.4
2018-03-03T08:53:44.146Z,50.6
2018-03-03T08:54:33.918Z,49.8
2018-03-03T08:55:24.831Z,48.6
2018-03-03T08:56:14.339Z,47.6
2018-03-03T08:57:04.168Z,47.3
2018-03-03T08:57:54.129Z,47.4
2018-03-03T08:58:44.812Z,47.8
2018-03-03T08:59:33.969Z,48.4
2018-03-03T09:00:24.613Z,49.2
2018-03-03T09:01:14.780Z,49.5
2018-03-03T09:02:04.457Z,49.7
2018-03-03T09:02:54.685Z,50.3
2018-03-03T09:03:43.863Z,50.9
2018-03-03T09:04:34.514Z,51.3
2018-03-03T09:05:24.735Z,51.9
2018-03-03T09:06:15.649Z,52.3
2018-03-03T09:07:04.872Z,52.6
2018-03-03T09:07:54.943Z,52.9
2018-03-03T09:08:44.689Z,53.1
2018-03-03T09:09:34.725Z,53.5
2018-03-03T09:10:25.590Z,53.9
2018-03-03T09:11:14.774Z,53.8
2018-03-03T09:12:04.402Z,53.1
2018-03-03T09:12:55.468Z,51.7
2018-03-03T09:13:45.225Z,50
2018-03-03T09:14:35.418Z,49.4
2018-03-03T09:15:25.753Z,49.8
2018-03-03T09:16:15.455Z,50.7
2018-03-03T09:17:04.790Z,50.8
2018-03-03T09:17:55.522Z,50.3
2018-03-03T09:18:45.729Z,50.4
2018-03-03T09:19:35.907Z,51.4
2018-03-03T09:20:25.977Z,52.1
2018-03-03T09:21:15.641Z,51.9
2018-03-03T09:22:05.517Z,52.1
2018-03-03T09:22:56.179Z,52.9
2018-03-03T09:23:46.028Z,53.4
2018-03-03T09:24:36.573Z,54.1
2018-03-03T09:25:25.928Z,53.8
2018-03-03T09:26:15.905Z,53
2018-03-03T09:27:05.880Z,52.7
2018-03-03T09:27:56.421Z,52.8
2018-03-03T09:28:46.455Z,53.7
2018-03-03T09:29:36.721Z,55.3
2018-03-03T09:30:26.937Z,56.4
2018-03-03T09:31:16.468Z,56.3
2018-03-03T09:32:06.881Z,56.3
2018-03-03T09:32:56.374Z,57.1
2018-03-03T09:33:46.427Z,57.9
2018-03-03T09:34:37.251Z,58.2
2018-03-03T09:35:26.691Z,58.8
2018-03-03T09:36:17.304Z,59.6
2018-03-03T09:37:06.854Z,60.5
2018-03-03T09:37:57.568Z,61.3
2018-03-03T09:38:46.870Z,61.6
2018-03-03T09:39:37.446Z,61.6
2018-03-03T09:40:27.516Z,61.2
2018-03-03T09:41:17.646Z,59.8
2018-03-03T09:42:07.511Z,58.4
2018-03-03T09:42:57.537Z,57.9
2018-03-03T09:43:47.546Z,58.3
2018-03-03T09:44:37.800Z,59.2
2018-03-03T09:45:27.671Z,60
2018-03-03T09:46:17.578Z,60.8
2018-03-03T09:47:07.375Z,61.4
2018-03-03T09:47:57.108Z,61.8
2018-03-03T09:48:47.560Z,62.1
2018-03-03T09:49:37.554Z,62
2018-03-03T09:50:27.091Z,61.8
2018-03-03T09:51:18.234Z,61.6
2018-03-03T09:52:07.825Z,61.6
2018-03-03T09:52:57.962Z,61.9
2018-03-03T09:53:48.034Z,62
2018-03-03T09:54:37.897Z,62.3
2018-03-03T09:55:28.441Z,62.5
2018-03-03T09:56:17.542Z,62.8
2018-03-03T09:57:08.227Z,63
2018-03-03T09:57:58.591Z,63.2
2018-03-03T09:58:49.091Z,63.3
2018-03-03T09:59:38.818Z,63.4
2018-03-03T10:00:28.400Z,63.4
2018-03-03T10:01:18.455Z,62.7
2018-03-03T10:02:09.048Z,61.9
2018-03-03T10:02:59.083Z,62.1
2018-03-03T10:03:48.219Z,62.5
2018-03-03T10:04:38.747Z,62.9
2018-03-03T10:05:28.588Z,62.7
2018-03-03T10:06:19.161Z,61
2018-03-03T10:07:08.750Z,59
2018-03-03T10:07:59.284Z,57.3
2018-03-03T10:08:48.374Z,55.6
2018-03-03T10:09:39.689Z,54.8
2018-03-03T10:10:29.751Z,55.7
2018-03-03T10:11:19.225Z,56.7
2018-03-03T10:12:09.857Z,56.5
2018-03-03T10:12:59.663Z,55.8
2018-03-03T10:13:48.914Z,56.1
2018-03-03T10:14:39.265Z,57.4
2018-03-03T10:15:30.081Z,58.9
2018-03-03T10:16:19.197Z,59.3
2018-03-03T10:17:09.624Z,58.9
2018-03-03T10:17:59.305Z,58.3
2018-03-03T10:18:49.660Z,57.1
2018-03-03T10:19:39.836Z,55.6
2018-03-03T10:20:29.708Z,54.7
2018-03-03T10:21:20.244Z,54.7
2018-03-03T10:22:09.959Z,54.9
2018-03-03T10:23:00.334Z,54.9
2018-03-03T10:23:49.781Z,55.3
2018-03-03T10:24:40.246Z,55.6
2018-03-03T10:25:30.317Z,55.8
2018-03-03T10:26:21.254Z,55.9
2018-03-03T10:27:10.620Z,56.1
2018-03-03T10:28:00.956Z,55.7
2018-03-03T10:28:50.053Z,54.9
2018-03-03T10:29:40.540Z,53.9
2018-03-03T10:30:31.171Z,52.9
2018-03-03T10:31:20.431Z,52.5
2018-03-03T10:32:10.871Z,53.4
2018-03-03T10:33:01.550Z,55.4
2018-03-03T10:33:50.803Z,57.9
2018-03-03T10:34:40.581Z,59.4
2018-03-03T10:35:31.204Z,59.9
2018-03-03T10:36:21.265Z,58.9
2018-03-03T10:37:11.623Z,57.1
2018-03-03T10:38:01.093Z,54.8
2018-03-03T10:38:51.427Z,53.5
2018-03-03T10:39:41.515Z,54.3
2018-03-03T10:40:31.074Z,55.8
2018-03-03T10:41:21.333Z,56.8
2018-03-03T10:42:10.990Z,58.2
2018-03-03T10:43:02.014Z,59.9
2018-03-03T10:43:51.898Z,61
2018-03-03T10:44:41.558Z,61.6
2018-03-03T10:45:31.137Z,61.9
2018-03-03T10:46:21.492Z,61.7
2018-03-03T10:47:12.115Z,61.4
2018-03-03T10:48:01.517Z,61.3
2018-03-03T10:48:51.666Z,61.4
2018-03-03T10:49:42.626Z,61.7
2018-03-03T10:50:32.068Z,62.1
2018-03-03T10:51:22.011Z,62.6
2018-03-03T10:52:11.582Z,63
2018-03-03T10:53:03.024Z,63.4
2018-03-03T10:53:52.558Z,63.6
2018-03-03T10:54:41.951Z,63.6
2018-03-03T10:55:32.590Z,63.7
2018-03-03T10:56:22.918Z,63.7
2018-03-03T10:57:12.552Z,63.8
2018-03-03T10:58:02.282Z,63.7
2018-03-03T10:58:51.951Z,63.8
2018-03-03T10:59:43.183Z,64.1
2018-03-03T11:00:32.189Z,64.6
2018-03-03T11:01:22.809Z,65.1
2018-03-03T11:02:11.506Z,65.5
2018-03-03T11:03:03.217Z,65.6
2018-03-03T11:03:52.938Z,65.8
2018-03-03T11:04:42.479Z,65.8
2018-03-03T11:05:32.332Z,65.9
2018-03-03T11:06:23.778Z,65.8
2018-03-03T11:07:13.436Z,65.7
2018-03-03T11:08:04.136Z,65.6
2018-03-03T11:08:52.981Z,65.7
2018-03-03T11:09:43.886Z,65.8
2018-03-03T11:10:33.464Z,66
2018-03-03T11:11:22.839Z,66.3
2018-03-03T11:12:13.788Z,66.4
2018-03-03T11:13:03.254Z,66.5
2018-03-03T11:13:53.193Z,66.4
2018-03-03T11:14:43.933Z,66.2
2018-03-03T11:15:33.254Z,66.1
2018-03-03T11:16:24.060Z,66.2
2018-03-03T11:17:13.855Z,66.3
2018-03-03T11:18:04.478Z,66.3
2018-03-03T11:18:53.949Z,66.3
2018-03-03T11:19:43.715Z,66.3
2018-03-03T11:20:34.638Z,66.4
2018-03-03T11:21:24.125Z,66.4
2018-03-03T11:22:14.573Z,66.4